sensor_id;sensor_type;location;lat;lon;timestamp;P1;durP1;ratioP1;P2;durP2;ratioP2
23015;SDS011;11674;52.428;13.584;2022-08-21T00:00:34;10.07;;;5.57;;
23015;SDS011;11674;52.428;13.584;2022-08-21T00:03:06;9.93;;;5.45;;
23015;SDS011;11674;52.428;13.584;2022-08-21T00:05:47;10.60;;;5.50;;
23015;SDS011;11674;52.428;13.584;2022-08-21T00:08:20;10.50;;;5.80;;
23015;SDS011;11674;52.428;13.584;2022-08-21T00:10:52;9.65;;;5.90;;
23015;SDS011;11674;52.428;13.584;2022-08-21T00:13:24;10.10;;;5.72;;
23015;SDS011;11674;52.428;13.584;2022-08-21T00:15:56;8.25;;;5.40;;
23015;SDS011;11674;52.428;13.584;2022-08-21T00:18:28;11.60;;;5.60;;
23015;SDS011;11674;52.428;13.584;2022-08-21T00:21:00;6.97;;;5.10;;
23015;SDS011;11674;52.428;13.584;2022-08-21T00:23:33;8.65;;;5.60;;
23015;SDS011;11674;52.428;13.584;2022-08-21T00:26:06;6.90;;;4.90;;
23015;SDS011;11674;52.428;13.584;2022-08-21T00:28:31;8.95;;;5.53;;
23015;SDS011;11674;52.428;13.584;2022-08-21T00:31:04;16.50;;;5.95;;
23015;SDS011;11674;52.428;13.584;2022-08-21T00:33:36;13.00;;;5.53;;
23015;SDS011;11674;52.428;13.584;2022-08-21T00:36:08;10.40;;;5.95;;
23015;SDS011;11674;52.428;13.584;2022-08-21T00:38:40;8.63;;;5.28;;
23015;SDS011;11674;52.428;13.584;2022-08-21T00:41:12;8.73;;;5.20;;
23015;SDS011;11674;52.428;13.584;2022-08-21T00:43:44;8.38;;;5.15;;
23015;SDS011;11674;52.428;13.584;2022-08-21T00:46:16;8.93;;;5.70;;
23015;SDS011;11674;52.428;13.584;2022-08-21T00:48:48;7.50;;;5.15;;
23015;SDS011;11674;52.428;13.584;2022-08-21T00:51:21;7.95;;;5.20;;
23015;SDS011;11674;52.428;13.584;2022-08-21T00:53:58;6.93;;;5.15;;
23015;SDS011;11674;52.428;13.584;2022-08-21T00:56:32;10.35;;;6.65;;
23015;SDS011;11674;52.428;13.584;2022-08-21T00:59:04;9.93;;;6.00;;
23015;SDS011;11674;52.428;13.584;2022-08-21T01:01:37;6.85;;;4.55;;
23015;SDS011;11674;52.428;13.584;2022-08-21T01:04:09;8.70;;;4.78;;
23015;SDS011;11674;52.428;13.584;2022-08-21T01:06:34;9.43;;;4.65;;
23015;SDS011;11674;52.428;13.584;2022-08-21T01:09:06;8.48;;;4.60;;
23015;SDS011;11674;52.428;13.584;2022-08-21T01:11:38;6.30;;;4.70;;
23015;SDS011;11674;52.428;13.584;2022-08-21T01:14:04;6.07;;;4.50;;
23015;SDS011;11674;52.428;13.584;2022-08-21T01:16:37;6.72;;;4.45;;
23015;SDS011;11674;52.428;13.584;2022-08-21T01:19:11;7.25;;;4.57;;
23015;SDS011;11674;52.428;13.584;2022-08-21T01:21:36;8.70;;;5.07;;
23015;SDS011;11674;52.428;13.584;2022-08-21T01:24:09;8.52;;;5.75;;
23015;SDS011;11674;52.428;13.584;2022-08-21T01:26:42;6.95;;;4.68;;
23015;SDS011;11674;52.428;13.584;2022-08-21T01:29:32;10.40;;;6.47;;
23015;SDS011;11674;52.428;13.584;2022-08-21T01:32:11;7.88;;;4.63;;
23015;SDS011;11674;52.428;13.584;2022-08-21T01:34:46;10.68;;;5.00;;
23015;SDS011;11674;52.428;13.584;2022-08-21T01:37:20;9.57;;;4.68;;
23015;SDS011;11674;52.428;13.584;2022-08-21T01:39:53;6.25;;;4.20;;
23015;SDS011;11674;52.428;13.584;2022-08-21T01:42:25;12.15;;;5.03;;
23015;SDS011;11674;52.428;13.584;2022-08-21T01:44:57;12.48;;;4.57;;
23015;SDS011;11674;52.428;13.584;2022-08-21T01:47:29;8.77;;;4.20;;
23015;SDS011;11674;52.428;13.584;2022-08-21T01:50:01;8.18;;;4.53;;
23015;SDS011;11674;52.428;13.584;2022-08-21T01:52:35;6.30;;;4.13;;
23015;SDS011;11674;52.428;13.584;2022-08-21T01:55:07;7.18;;;4.53;;
23015;SDS011;11674;52.428;13.584;2022-08-21T01:57:41;6.75;;;4.70;;
23015;SDS011;11674;52.428;13.584;2022-08-21T02:00:14;7.55;;;4.72;;
23015;SDS011;11674;52.428;13.584;2022-08-21T02:02:49;6.90;;;4.10;;
23015;SDS011;11674;52.428;13.584;2022-08-21T02:05:22;7.43;;;4.63;;
23015;SDS011;11674;52.428;13.584;2022-08-21T02:07:54;7.43;;;3.90;;
23015;SDS011;11674;52.428;13.584;2022-08-21T02:10:28;9.20;;;4.40;;
23015;SDS011;11674;52.428;13.584;2022-08-21T02:13:02;7.35;;;4.60;;
23015;SDS011;11674;52.428;13.584;2022-08-21T02:15:34;7.97;;;5.90;;
23015;SDS011;11674;52.428;13.584;2022-08-21T02:18:06;8.95;;;4.70;;
23015;SDS011;11674;52.428;13.584;2022-08-21T02:20:39;18.60;;;9.02;;
23015;SDS011;11674;52.428;13.584;2022-08-21T02:23:14;8.98;;;4.90;;
23015;SDS011;11674;52.428;13.584;2022-08-21T02:25:47;10.10;;;4.22;;
23015;SDS011;11674;52.428;13.584;2022-08-21T02:28:19;11.50;;;4.70;;
23015;SDS011;11674;52.428;13.584;2022-08-21T02:30:51;6.53;;;3.55;;
23015;SDS011;11674;52.428;13.584;2022-08-21T02:33:23;8.00;;;4.28;;
23015;SDS011;11674;52.428;13.584;2022-08-21T02:35:55;5.03;;;3.28;;
23015;SDS011;11674;52.428;13.584;2022-08-21T02:38:29;5.70;;;3.30;;
23015;SDS011;11674;52.428;13.584;2022-08-21T02:41:02;5.28;;;3.10;;
23015;SDS011;11674;52.428;13.584;2022-08-21T02:43:34;9.40;;;3.47;;
23015;SDS011;11674;52.428;13.584;2022-08-21T02:46:07;5.45;;;3.50;;
23015;SDS011;11674;52.428;13.584;2022-08-21T02:48:40;4.80;;;3.20;;
23015;SDS011;11674;52.428;13.584;2022-08-21T02:51:13;4.35;;;3.42;;
23015;SDS011;11674;52.428;13.584;2022-08-21T02:53:48;6.95;;;3.28;;
23015;SDS011;11674;52.428;13.584;2022-08-21T02:56:21;6.50;;;3.55;;
23015;SDS011;11674;52.428;13.584;2022-08-21T02:58:53;6.60;;;3.42;;
23015;SDS011;11674;52.428;13.584;2022-08-21T03:01:25;6.47;;;3.60;;
23015;SDS011;11674;52.428;13.584;2022-08-21T03:03:58;13.07;;;3.88;;
23015;SDS011;11674;52.428;13.584;2022-08-21T03:06:30;11.90;;;6.45;;
23015;SDS011;11674;52.428;13.584;2022-08-21T03:09:02;4.22;;;3.10;;
23015;SDS011;11674;52.428;13.584;2022-08-21T03:11:34;7.70;;;3.63;;
23015;SDS011;11674;52.428;13.584;2022-08-21T03:14:06;4.43;;;3.28;;
23015;SDS011;11674;52.428;13.584;2022-08-21T03:16:38;5.88;;;3.88;;
23015;SDS011;11674;52.428;13.584;2022-08-21T03:19:10;7.25;;;4.45;;
23015;SDS011;11674;52.428;13.584;2022-08-21T03:21:42;9.90;;;3.70;;
23015;SDS011;11674;52.428;13.584;2022-08-21T03:24:14;19.70;;;11.95;;
23015;SDS011;11674;52.428;13.584;2022-08-21T03:26:46;8.20;;;3.97;;
23015;SDS011;11674;52.428;13.584;2022-08-21T03:29:18;4.93;;;3.30;;
23015;SDS011;11674;52.428;13.584;2022-08-21T03:31:50;7.63;;;3.55;;
23015;SDS011;11674;52.428;13.584;2022-08-21T03:34:22;9.00;;;4.03;;
23015;SDS011;11674;52.428;13.584;2022-08-21T03:36:54;9.63;;;4.57;;
23015;SDS011;11674;52.428;13.584;2022-08-21T03:39:26;7.95;;;3.22;;
23015;SDS011;11674;52.428;13.584;2022-08-21T03:42:05;6.65;;;3.75;;
23015;SDS011;11674;52.428;13.584;2022-08-21T03:44:37;7.82;;;3.60;;
23015;SDS011;11674;52.428;13.584;2022-08-21T03:47:09;4.32;;;3.00;;
23015;SDS011;11674;52.428;13.584;2022-08-21T03:49:41;7.68;;;3.53;;
23015;SDS011;11674;52.428;13.584;2022-08-21T03:52:13;6.43;;;3.10;;
23015;SDS011;11674;52.428;13.584;2022-08-21T03:54:45;10.48;;;3.17;;
23015;SDS011;11674;52.428;13.584;2022-08-21T03:57:17;7.18;;;3.00;;
23015;SDS011;11674;52.428;13.584;2022-08-21T03:59:49;15.45;;;7.88;;
23015;SDS011;11674;52.428;13.584;2022-08-21T04:02:21;8.73;;;3.75;;
23015;SDS011;11674;52.428;13.584;2022-08-21T04:04:53;5.97;;;2.90;;
23015;SDS011;11674;52.428;13.584;2022-08-21T04:07:25;9.75;;;4.63;;
23015;SDS011;11674;52.428;13.584;2022-08-21T04:09:57;9.30;;;3.63;;
23015;SDS011;11674;52.428;13.584;2022-08-21T04:12:29;5.88;;;2.58;;
23015;SDS011;11674;52.428;13.584;2022-08-21T04:15:01;7.63;;;2.63;;
23015;SDS011;11674;52.428;13.584;2022-08-21T04:17:33;8.07;;;3.03;;
23015;SDS011;11674;52.428;13.584;2022-08-21T04:20:05;8.32;;;2.85;;
23015;SDS011;11674;52.428;13.584;2022-08-21T04:22:37;7.20;;;2.67;;
23015;SDS011;11674;52.428;13.584;2022-08-21T04:25:09;6.82;;;3.40;;
23015;SDS011;11674;52.428;13.584;2022-08-21T04:27:42;8.20;;;2.83;;
23015;SDS011;11674;52.428;13.584;2022-08-21T04:30:14;6.00;;;2.58;;
23015;SDS011;11674;52.428;13.584;2022-08-21T04:32:47;7.53;;;2.63;;
23015;SDS011;11674;52.428;13.584;2022-08-21T04:35:21;6.13;;;2.85;;
23015;SDS011;11674;52.428;13.584;2022-08-21T04:37:54;8.68;;;2.42;;
23015;SDS011;11674;52.428;13.584;2022-08-21T04:40:27;8.40;;;2.50;;
23015;SDS011;11674;52.428;13.584;2022-08-21T04:43:04;8.27;;;2.75;;
23015;SDS011;11674;52.428;13.584;2022-08-21T04:45:42;3.08;;;2.25;;
23015;SDS011;11674;52.428;13.584;2022-08-21T04:48:17;5.28;;;2.40;;
23015;SDS011;11674;52.428;13.584;2022-08-21T04:56:19;6.88;;;2.60;;
23015;SDS011;11674;52.428;13.584;2022-08-21T04:58:53;8.40;;;2.40;;
23015;SDS011;11674;52.428;13.584;2022-08-21T05:01:28;6.80;;;2.58;;
23015;SDS011;11674;52.428;13.584;2022-08-21T05:04:02;7.00;;;2.35;;
23015;SDS011;11674;52.428;13.584;2022-08-21T05:06:37;9.52;;;2.50;;
23015;SDS011;11674;52.428;13.584;2022-08-21T05:09:14;5.65;;;2.28;;
23015;SDS011;11674;52.428;13.584;2022-08-21T05:11:48;7.43;;;2.80;;
23015;SDS011;11674;52.428;13.584;2022-08-21T05:14:20;7.72;;;2.28;;
23015;SDS011;11674;52.428;13.584;2022-08-21T05:16:52;6.30;;;2.10;;
23015;SDS011;11674;52.428;13.584;2022-08-21T05:19:24;3.67;;;2.08;;
23015;SDS011;11674;52.428;13.584;2022-08-21T05:21:56;5.22;;;2.40;;
23015;SDS011;11674;52.428;13.584;2022-08-21T05:24:28;7.50;;;1.90;;
23015;SDS011;11674;52.428;13.584;2022-08-21T05:27:00;5.15;;;2.13;;
23015;SDS011;11674;52.428;13.584;2022-08-21T05:29:32;7.30;;;1.92;;
23015;SDS011;11674;52.428;13.584;2022-08-21T05:32:10;9.85;;;2.10;;
23015;SDS011;11674;52.428;13.584;2022-08-21T05:34:44;4.20;;;1.90;;
23015;SDS011;11674;52.428;13.584;2022-08-21T05:37:16;7.68;;;2.13;;
23015;SDS011;11674;52.428;13.584;2022-08-21T05:39:48;6.45;;;2.10;;
23015;SDS011;11674;52.428;13.584;2022-08-21T05:42:20;6.85;;;2.08;;
23015;SDS011;11674;52.428;13.584;2022-08-21T05:44:52;5.53;;;1.90;;
23015;SDS011;11674;52.428;13.584;2022-08-21T05:47:24;7.30;;;1.80;;
23015;SDS011;11674;52.428;13.584;2022-08-21T05:49:56;6.40;;;1.88;;
23015;SDS011;11674;52.428;13.584;2022-08-21T05:52:28;5.32;;;2.33;;
23015;SDS011;11674;52.428;13.584;2022-08-21T05:55:00;4.90;;;1.88;;
23015;SDS011;11674;52.428;13.584;2022-08-21T05:57:25;3.45;;;2.15;;
23015;SDS011;11674;52.428;13.584;2022-08-21T05:59:57;3.63;;;1.80;;
23015;SDS011;11674;52.428;13.584;2022-08-21T06:05:11;2.83;;;1.65;;
23015;SDS011;11674;52.428;13.584;2022-08-21T06:07:43;7.30;;;2.22;;
23015;SDS011;11674;52.428;13.584;2022-08-21T06:10:15;7.82;;;2.00;;
23015;SDS011;11674;52.428;13.584;2022-08-21T06:12:52;4.78;;;1.67;;
23015;SDS011;11674;52.428;13.584;2022-08-21T06:15:24;5.25;;;1.42;;
23015;SDS011;11674;52.428;13.584;2022-08-21T06:17:57;6.45;;;2.05;;
23015;SDS011;11674;52.428;13.584;2022-08-21T06:20:29;6.88;;;1.80;;
23015;SDS011;11674;52.428;13.584;2022-08-21T06:23:01;7.03;;;1.73;;
23015;SDS011;11674;52.428;13.584;2022-08-21T06:25:33;9.05;;;2.47;;
23015;SDS011;11674;52.428;13.584;2022-08-21T06:28:08;6.88;;;2.10;;
23015;SDS011;11674;52.428;13.584;2022-08-21T06:30:41;8.55;;;1.50;;
23015;SDS011;11674;52.428;13.584;2022-08-21T06:33:13;5.00;;;1.50;;
23015;SDS011;11674;52.428;13.584;2022-08-21T06:35:45;4.63;;;1.95;;
23015;SDS011;11674;52.428;13.584;2022-08-21T06:38:17;7.47;;;2.15;;
23015;SDS011;11674;52.428;13.584;2022-08-21T06:40:49;5.53;;;1.70;;
23015;SDS011;11674;52.428;13.584;2022-08-21T06:43:21;2.92;;;1.33;;
23015;SDS011;11674;52.428;13.584;2022-08-21T06:45:53;6.07;;;1.50;;
23015;SDS011;11674;52.428;13.584;2022-08-21T06:48:25;5.40;;;1.45;;
23015;SDS011;11674;52.428;13.584;2022-08-21T06:50:58;4.72;;;1.65;;
23015;SDS011;11674;52.428;13.584;2022-08-21T06:53:31;6.63;;;1.95;;
23015;SDS011;11674;52.428;13.584;2022-08-21T06:56:03;5.25;;;1.75;;
23015;SDS011;11674;52.428;13.584;2022-08-21T06:58:35;7.22;;;1.63;;
23015;SDS011;11674;52.428;13.584;2022-08-21T07:01:07;9.23;;;1.85;;
23015;SDS011;11674;52.428;13.584;2022-08-21T07:03:40;5.60;;;1.92;;
23015;SDS011;11674;52.428;13.584;2022-08-21T07:06:13;5.80;;;1.55;;
23015;SDS011;11674;52.428;13.584;2022-08-21T07:08:45;5.75;;;1.45;;
23015;SDS011;11674;52.428;13.584;2022-08-21T07:11:18;6.72;;;1.48;;
23015;SDS011;11674;52.428;13.584;2022-08-21T07:13:52;3.88;;;1.50;;
23015;SDS011;11674;52.428;13.584;2022-08-21T07:16:24;4.28;;;1.50;;
23015;SDS011;11674;52.428;13.584;2022-08-21T07:18:56;4.63;;;1.50;;
23015;SDS011;11674;52.428;13.584;2022-08-21T07:21:28;6.40;;;1.45;;
23015;SDS011;11674;52.428;13.584;2022-08-21T07:24:00;2.42;;;1.20;;
23015;SDS011;11674;52.428;13.584;2022-08-21T07:26:32;3.65;;;1.33;;
23015;SDS011;11674;52.428;13.584;2022-08-21T07:29:04;3.08;;;1.15;;
23015;SDS011;11674;52.428;13.584;2022-08-21T07:31:36;7.85;;;1.95;;
23015;SDS011;11674;52.428;13.584;2022-08-21T07:34:08;2.00;;;1.23;;
23015;SDS011;11674;52.428;13.584;2022-08-21T07:36:40;4.80;;;1.10;;
23015;SDS011;11674;52.428;13.584;2022-08-21T07:39:12;3.83;;;1.30;;
23015;SDS011;11674;52.428;13.584;2022-08-21T07:41:44;4.97;;;1.38;;
23015;SDS011;11674;52.428;13.584;2022-08-21T07:44:16;4.03;;;1.42;;
23015;SDS011;11674;52.428;13.584;2022-08-21T07:46:48;6.07;;;1.38;;
23015;SDS011;11674;52.428;13.584;2022-08-21T07:49:20;9.63;;;1.60;;
23015;SDS011;11674;52.428;13.584;2022-08-21T07:51:52;5.78;;;1.35;;
23015;SDS011;11674;52.428;13.584;2022-08-21T07:54:24;7.03;;;1.80;;
23015;SDS011;11674;52.428;13.584;2022-08-21T07:56:56;5.38;;;1.23;;
23015;SDS011;11674;52.428;13.584;2022-08-21T07:59:28;4.78;;;1.13;;
23015;SDS011;11674;52.428;13.584;2022-08-21T08:02:00;3.83;;;1.10;;
23015;SDS011;11674;52.428;13.584;2022-08-21T08:04:32;5.75;;;1.35;;
23015;SDS011;11674;52.428;13.584;2022-08-21T08:07:04;5.18;;;1.27;;
23015;SDS011;11674;52.428;13.584;2022-08-21T08:09:36;4.05;;;1.08;;
23015;SDS011;11674;52.428;13.584;2022-08-21T08:12:08;3.45;;;1.15;;
23015;SDS011;11674;52.428;13.584;2022-08-21T08:14:40;5.00;;;1.30;;
23015;SDS011;11674;52.428;13.584;2022-08-21T08:17:12;7.47;;;1.15;;
23015;SDS011;11674;52.428;13.584;2022-08-21T08:19:44;4.72;;;1.30;;
23015;SDS011;11674;52.428;13.584;2022-08-21T08:22:16;7.35;;;1.70;;
23015;SDS011;11674;52.428;13.584;2022-08-21T08:24:51;5.03;;;1.75;;
23015;SDS011;11674;52.428;13.584;2022-08-21T08:27:23;5.38;;;1.52;;
23015;SDS011;11674;52.428;13.584;2022-08-21T08:29:55;5.07;;;1.30;;
23015;SDS011;11674;52.428;13.584;2022-08-21T08:32:27;5.43;;;1.20;;
23015;SDS011;11674;52.428;13.584;2022-08-21T08:34:59;3.45;;;1.25;;
23015;SDS011;11674;52.428;13.584;2022-08-21T08:37:32;5.65;;;1.10;;
23015;SDS011;11674;52.428;13.584;2022-08-21T08:40:04;4.88;;;1.40;;
23015;SDS011;11674;52.428;13.584;2022-08-21T08:42:36;3.65;;;1.20;;
23015;SDS011;11674;52.428;13.584;2022-08-21T08:45:10;2.78;;;1.13;;
23015;SDS011;11674;52.428;13.584;2022-08-21T08:47:39;6.85;;;1.40;;
23015;SDS011;11674;52.428;13.584;2022-08-21T08:50:18;5.85;;;1.10;;
23015;SDS011;11674;52.428;13.584;2022-08-21T08:53:00;6.63;;;1.45;;
23015;SDS011;11674;52.428;13.584;2022-08-21T08:55:37;2.83;;;1.00;;
23015;SDS011;11674;52.428;13.584;2022-08-21T08:58:15;4.05;;;1.30;;
23015;SDS011;11674;52.428;13.584;2022-08-21T09:00:52;4.72;;;1.20;;
23015;SDS011;11674;52.428;13.584;2022-08-21T09:03:26;5.50;;;1.35;;
23015;SDS011;11674;52.428;13.584;2022-08-21T09:08:45;3.33;;;1.13;;
23015;SDS011;11674;52.428;13.584;2022-08-21T09:11:45;5.25;;;1.20;;
23015;SDS011;11674;52.428;13.584;2022-08-21T09:14:26;3.97;;;1.38;;
23015;SDS011;11674;52.428;13.584;2022-08-21T09:17:16;4.30;;;1.35;;
23015;SDS011;11674;52.428;13.584;2022-08-21T09:20:08;4.03;;;1.45;;
23015;SDS011;11674;52.428;13.584;2022-08-21T09:25:38;3.05;;;1.27;;
23015;SDS011;11674;52.428;13.584;2022-08-21T09:28:17;8.18;;;1.65;;
23015;SDS011;11674;52.428;13.584;2022-08-21T09:30:49;6.32;;;1.92;;
23015;SDS011;11674;52.428;13.584;2022-08-21T09:33:25;10.77;;;1.92;;
23015;SDS011;11674;52.428;13.584;2022-08-21T09:35:58;7.00;;;1.50;;
23015;SDS011;11674;52.428;13.584;2022-08-21T09:38:31;4.13;;;1.55;;
23015;SDS011;11674;52.428;13.584;2022-08-21T09:41:07;4.22;;;1.48;;
23015;SDS011;11674;52.428;13.584;2022-08-21T09:43:40;6.00;;;1.40;;
23015;SDS011;11674;52.428;13.584;2022-08-21T09:46:20;3.90;;;1.33;;
23015;SDS011;11674;52.428;13.584;2022-08-21T09:48:55;3.50;;;1.40;;
23015;SDS011;11674;52.428;13.584;2022-08-21T09:51:30;3.95;;;1.63;;
23015;SDS011;11674;52.428;13.584;2022-08-21T09:56:50;4.35;;;1.23;;
23015;SDS011;11674;52.428;13.584;2022-08-21T09:59:29;4.72;;;1.50;;
23015;SDS011;11674;52.428;13.584;2022-08-21T10:02:19;4.30;;;1.10;;
23015;SDS011;11674;52.428;13.584;2022-08-21T10:05:07;7.78;;;1.95;;
23015;SDS011;11674;52.428;13.584;2022-08-21T10:07:47;4.80;;;1.27;;
23015;SDS011;11674;52.428;13.584;2022-08-21T10:10:26;4.28;;;1.60;;
23015;SDS011;11674;52.428;13.584;2022-08-21T10:24:19;3.78;;;1.35;;
23015;SDS011;11674;52.428;13.584;2022-08-21T10:38:03;5.72;;;1.17;;
23015;SDS011;11674;52.428;13.584;2022-08-21T10:46:32;3.10;;;1.20;;
23015;SDS011;11674;52.428;13.584;2022-08-21T10:51:56;5.65;;;1.65;;
23015;SDS011;11674;52.428;13.584;2022-08-21T10:57:27;5.30;;;1.38;;
23015;SDS011;11674;52.428;13.584;2022-08-21T11:00:10;6.97;;;1.15;;
23015;SDS011;11674;52.428;13.584;2022-08-21T11:02:46;9.40;;;1.63;;
23015;SDS011;11674;52.428;13.584;2022-08-21T11:08:12;4.28;;;1.10;;
23015;SDS011;11674;52.428;13.584;2022-08-21T11:10:53;3.13;;;1.05;;
23015;SDS011;11674;52.428;13.584;2022-08-21T11:16:26;3.90;;;1.77;;
23015;SDS011;11674;52.428;13.584;2022-08-21T11:19:35;4.68;;;1.50;;
23015;SDS011;11674;52.428;13.584;2022-08-21T11:22:17;6.07;;;1.58;;
23015;SDS011;11674;52.428;13.584;2022-08-21T11:25:13;4.20;;;1.30;;
23015;SDS011;11674;52.428;13.584;2022-08-21T11:30:27;4.45;;;1.30;;
23015;SDS011;11674;52.428;13.584;2022-08-21T11:35:55;4.80;;;1.33;;
23015;SDS011;11674;52.428;13.584;2022-08-21T11:38:35;6.68;;;1.40;;
23015;SDS011;11674;52.428;13.584;2022-08-21T11:41:21;3.42;;;1.63;;
23015;SDS011;11674;52.428;13.584;2022-08-21T11:46:52;4.03;;;1.27;;
23015;SDS011;11674;52.428;13.584;2022-08-21T11:52:31;2.97;;;1.35;;
23015;SDS011;11674;52.428;13.584;2022-08-21T11:55:28;6.55;;;1.30;;
23015;SDS011;11674;52.428;13.584;2022-08-21T11:58:03;2.65;;;1.38;;
23015;SDS011;11674;52.428;13.584;2022-08-21T12:00:44;3.63;;;1.20;;
23015;SDS011;11674;52.428;13.584;2022-08-21T12:03:25;4.75;;;1.60;;
23015;SDS011;11674;52.428;13.584;2022-08-21T12:06:02;4.95;;;1.50;;
23015;SDS011;11674;52.428;13.584;2022-08-21T12:08:35;3.88;;;1.23;;
23015;SDS011;11674;52.428;13.584;2022-08-21T12:16:45;4.07;;;1.40;;
23015;SDS011;11674;52.428;13.584;2022-08-21T12:21:53;5.10;;;2.47;;
23015;SDS011;11674;52.428;13.584;2022-08-21T12:24:43;3.25;;;1.30;;
23015;SDS011;11674;52.428;13.584;2022-08-21T12:30:03;5.43;;;2.33;;
23015;SDS011;11674;52.428;13.584;2022-08-21T12:35:46;4.07;;;1.40;;
23015;SDS011;11674;52.428;13.584;2022-08-21T12:38:22;3.33;;;1.45;;
23015;SDS011;11674;52.428;13.584;2022-08-21T12:41:03;4.35;;;1.15;;
23015;SDS011;11674;52.428;13.584;2022-08-21T12:43:43;3.20;;;1.10;;
23015;SDS011;11674;52.428;13.584;2022-08-21T12:46:21;4.72;;;1.20;;
23015;SDS011;11674;52.428;13.584;2022-08-21T12:49:00;5.63;;;0.98;;
23015;SDS011;11674;52.428;13.584;2022-08-21T12:51:47;2.90;;;1.20;;
23015;SDS011;11674;52.428;13.584;2022-08-21T12:54:27;3.85;;;1.23;;
23015;SDS011;11674;52.428;13.584;2022-08-21T12:57:03;4.30;;;2.25;;
23015;SDS011;11674;52.428;13.584;2022-08-21T12:59:30;5.25;;;1.13;;
23015;SDS011;11674;52.428;13.584;2022-08-21T13:02:03;2.53;;;1.10;;
23015;SDS011;11674;52.428;13.584;2022-08-21T13:04:46;2.20;;;0.80;;
23015;SDS011;11674;52.428;13.584;2022-08-21T13:07:29;2.40;;;1.10;;
23015;SDS011;11674;52.428;13.584;2022-08-21T13:10:07;2.03;;;0.93;;
23015;SDS011;11674;52.428;13.584;2022-08-21T13:12:49;7.95;;;1.13;;
23015;SDS011;11674;52.428;13.584;2022-08-21T13:15:27;5.05;;;1.27;;
23015;SDS011;11674;52.428;13.584;2022-08-21T13:18:03;2.50;;;1.02;;
23015;SDS011;11674;52.428;13.584;2022-08-21T13:20:39;7.78;;;2.88;;
23015;SDS011;11674;52.428;13.584;2022-08-21T13:23:28;5.40;;;3.17;;
23015;SDS011;11674;52.428;13.584;2022-08-21T13:26:02;13.73;;;5.25;;
23015;SDS011;11674;52.428;13.584;2022-08-21T13:28:43;2.95;;;0.98;;
23015;SDS011;11674;52.428;13.584;2022-08-21T13:31:20;5.38;;;1.02;;
23015;SDS011;11674;52.428;13.584;2022-08-21T13:33:56;3.83;;;1.02;;
23015;SDS011;11674;52.428;13.584;2022-08-21T13:36:29;4.07;;;1.00;;
23015;SDS011;11674;52.428;13.584;2022-08-21T13:39:04;1.73;;;0.80;;
23015;SDS011;11674;52.428;13.584;2022-08-21T13:41:39;2.33;;;1.00;;
23015;SDS011;11674;52.428;13.584;2022-08-21T13:44:20;2.78;;;1.02;;
23015;SDS011;11674;52.428;13.584;2022-08-21T13:46:55;1.75;;;0.80;;
23015;SDS011;11674;52.428;13.584;2022-08-21T13:49:32;5.35;;;1.02;;
23015;SDS011;11674;52.428;13.584;2022-08-21T13:52:17;1.00;;;0.80;;
23015;SDS011;11674;52.428;13.584;2022-08-21T13:54:58;1.73;;;0.80;;
23015;SDS011;11674;52.428;13.584;2022-08-21T13:57:32;0.88;;;0.80;;
23015;SDS011;11674;52.428;13.584;2022-08-21T14:00:19;4.47;;;0.98;;
23015;SDS011;11674;52.428;13.584;2022-08-21T14:03:03;1.42;;;0.80;;
23015;SDS011;11674;52.428;13.584;2022-08-21T14:05:43;1.40;;;0.63;;
23015;SDS011;11674;52.428;13.584;2022-08-21T14:08:23;1.63;;;0.80;;
23015;SDS011;11674;52.428;13.584;2022-08-21T14:11:10;1.80;;;0.80;;
23015;SDS011;11674;52.428;13.584;2022-08-21T14:13:44;2.33;;;1.45;;
23015;SDS011;11674;52.428;13.584;2022-08-21T14:16:20;2.28;;;1.33;;
23015;SDS011;11674;52.428;13.584;2022-08-21T14:21:51;3.50;;;1.10;;
23015;SDS011;11674;52.428;13.584;2022-08-21T14:24:25;5.68;;;1.23;;
23015;SDS011;11674;52.428;13.584;2022-08-21T14:27:03;2.00;;;1.10;;
23015;SDS011;11674;52.428;13.584;2022-08-21T14:29:38;1.75;;;0.80;;
23015;SDS011;11674;52.428;13.584;2022-08-21T14:32:20;1.58;;;0.90;;
23015;SDS011;11674;52.428;13.584;2022-08-21T14:34:56;2.60;;;0.82;;
23015;SDS011;11674;52.428;13.584;2022-08-21T14:37:28;2.28;;;0.90;;
23015;SDS011;11674;52.428;13.584;2022-08-21T14:40:00;2.15;;;0.95;;
23015;SDS011;11674;52.428;13.584;2022-08-21T14:42:32;2.50;;;0.88;;
23015;SDS011;11674;52.428;13.584;2022-08-21T14:45:10;5.80;;;1.08;;
23015;SDS011;11674;52.428;13.584;2022-08-21T14:47:45;3.47;;;1.20;;
23015;SDS011;11674;52.428;13.584;2022-08-21T14:50:17;6.95;;;4.40;;
23015;SDS011;11674;52.428;13.584;2022-08-21T14:52:50;3.17;;;1.00;;
23015;SDS011;11674;52.428;13.584;2022-08-21T14:55:22;5.07;;;1.60;;
23015;SDS011;11674;52.428;13.584;2022-08-21T14:57:54;3.38;;;1.77;;
23015;SDS011;11674;52.428;13.584;2022-08-21T15:00:27;2.65;;;1.45;;
23015;SDS011;11674;52.428;13.584;2022-08-21T15:02:59;3.08;;;1.40;;
23015;SDS011;11674;52.428;13.584;2022-08-21T15:05:31;2.67;;;1.17;;
23015;SDS011;11674;52.428;13.584;2022-08-21T15:08:03;3.85;;;1.10;;
23015;SDS011;11674;52.428;13.584;2022-08-21T15:10:35;6.05;;;1.20;;
23015;SDS011;11674;52.428;13.584;2022-08-21T15:13:08;4.45;;;1.30;;
23015;SDS011;11674;52.428;13.584;2022-08-21T15:15:41;4.57;;;1.58;;
23015;SDS011;11674;52.428;13.584;2022-08-21T15:18:16;1.85;;;1.10;;
23015;SDS011;11674;52.428;13.584;2022-08-21T15:20:48;2.13;;;1.02;;
23015;SDS011;11674;52.428;13.584;2022-08-21T15:23:20;4.70;;;1.30;;
23015;SDS011;11674;52.428;13.584;2022-08-21T15:25:52;5.18;;;1.35;;
23015;SDS011;11674;52.428;13.584;2022-08-21T15:28:18;2.92;;;1.33;;
23015;SDS011;11674;52.428;13.584;2022-08-21T15:30:50;2.05;;;0.90;;
23015;SDS011;11674;52.428;13.584;2022-08-21T15:33:22;2.83;;;1.13;;
23015;SDS011;11674;52.428;13.584;2022-08-21T15:35:54;2.75;;;1.05;;
23015;SDS011;11674;52.428;13.584;2022-08-21T15:38:26;3.20;;;1.35;;
23015;SDS011;11674;52.428;13.584;2022-08-21T15:40:58;1.95;;;0.93;;
23015;SDS011;11674;52.428;13.584;2022-08-21T15:43:40;5.03;;;1.00;;
23015;SDS011;11674;52.428;13.584;2022-08-21T15:46:15;3.72;;;1.08;;
23015;SDS011;11674;52.428;13.584;2022-08-21T15:48:48;4.32;;;1.50;;
23015;SDS011;11674;52.428;13.584;2022-08-21T15:51:14;3.33;;;1.42;;
23015;SDS011;11674;52.428;13.584;2022-08-21T15:53:47;7.95;;;1.33;;
23015;SDS011;11674;52.428;13.584;2022-08-21T15:59:00;3.85;;;1.52;;
23015;SDS011;11674;52.428;13.584;2022-08-21T16:01:35;3.90;;;1.50;;
23015;SDS011;11674;52.428;13.584;2022-08-21T16:04:07;3.55;;;1.38;;
23015;SDS011;11674;52.428;13.584;2022-08-21T16:06:40;5.70;;;1.58;;
23015;SDS011;11674;52.428;13.584;2022-08-21T16:09:12;4.95;;;1.70;;
23015;SDS011;11674;52.428;13.584;2022-08-21T16:11:44;3.50;;;1.75;;
23015;SDS011;11674;52.428;13.584;2022-08-21T16:14:17;6.93;;;1.58;;
23015;SDS011;11674;52.428;13.584;2022-08-21T16:16:49;8.20;;;1.60;;
23015;SDS011;11674;52.428;13.584;2022-08-21T16:19:22;3.28;;;1.45;;
23015;SDS011;11674;52.428;13.584;2022-08-21T16:21:54;4.30;;;1.38;;
23015;SDS011;11674;52.428;13.584;2022-08-21T16:24:26;5.07;;;1.60;;
23015;SDS011;11674;52.428;13.584;2022-08-21T16:26:58;6.88;;;1.67;;
23015;SDS011;11674;52.428;13.584;2022-08-21T16:29:33;4.07;;;1.50;;
23015;SDS011;11674;52.428;13.584;2022-08-21T16:32:07;3.03;;;1.50;;
23015;SDS011;11674;52.428;13.584;2022-08-21T16:34:41;3.05;;;1.42;;
23015;SDS011;11674;52.428;13.584;2022-08-21T16:37:15;6.05;;;2.08;;
23015;SDS011;11674;52.428;13.584;2022-08-21T16:39:48;6.05;;;2.67;;
23015;SDS011;11674;52.428;13.584;2022-08-21T16:42:21;4.97;;;2.10;;